Flight Track Log - Related Links

Times and Time Zones

All times are in EDT time to prevent confusion due to time zone crossing. See the JZA8279 flight status page for this flight to view local times or setup timezone preferences in your user account.

Time Position Orientation Groundspeed Altitude Reporting Facility
EDT Latitude Longitude Course Direction KTS MPH feet Rate Location/Type
Sun 02:02:36 PM 54.2500 -130.4333 135° Southeast 150 173 1,600  Level Vancouver Center
Sun 02:03:36 PM 54.2000 -130.4000 159° South 160 184 3,100 1,450 Climbing Vancouver Center
Sun 02:04:36 PM 54.1667 -130.3333 130° Southeast 180 207 4,500 1,300 Climbing Vancouver Center
Sun 02:05:36 PM 54.1500 -130.2667 113° Southeast 180 207 5,700 1,300 Climbing Vancouver Center
Sun 02:06:36 PM 54.1000 -130.2000 142° Southeast 190 219 7,100 1,300 Climbing Vancouver Center
Sun 02:07:00 PM 53.9696 -129.9153 135° Southeast  Level FlightAware Approximate
Sun 02:07:36 PM 54.0667 -130.1500 139° Southeast 190 219 8,300  Level Vancouver Center
Sun 02:08:36 PM 54.0167 -130.0500 130° Southeast 210 242 9,600 1,150 Climbing Vancouver Center
Sun 02:09:36 PM 53.9833 -129.9833 130° Southeast 210 242 10,600 1,100 Climbing Vancouver Center
Sun 02:10:36 PM 53.9500 -129.9333 139° Southeast 210 242 11,800 1,200 Climbing Vancouver Center
Sun 02:11:36 PM 53.9167 -129.8667 130° Southeast 210 242 13,000 1,150 Climbing Vancouver Center
Sun 02:12:36 PM 53.8667 -129.7667 130° Southeast 210 242 14,100 1,050 Climbing Vancouver Center
Sun 02:13:36 PM 53.8167 -129.7167 149° Southeast 220 253 15,100 1,050 Climbing Vancouver Center
Sun 02:14:36 PM 53.7667 -129.6500 142° Southeast 220 253 16,200 950 Climbing Vancouver Center
Sun 02:15:36 PM 53.7333 -129.5500 119° Southeast 220 253 17,000 850 Climbing Vancouver Center
Sun 02:16:36 PM 53.7000 -129.5000 138° Southeast 230 265 17,900 800 Climbing Vancouver Center
Sun 02:17:36 PM 53.6500 -129.4000 130° Southeast 230 265 18,600 650 Climbing Vancouver Center
Sun 02:18:36 PM 53.6000 -129.3333 142° Southeast 230 265 19,200 700 Climbing Vancouver Center
Sun 02:19:36 PM 53.5500 -129.2500 135° Southeast 230 265 20,000 750 Climbing Vancouver Center
Sun 02:20:36 PM 53.5167 -129.1833 130° Southeast 240 276 20,700 750 Climbing Vancouver Center
Sun 02:21:36 PM 53.4667 -129.1000 135° Southeast 230 265 21,500 700 Climbing Vancouver Center
Sun 02:22:36 PM 53.4167 -129.0333 142° Southeast 230 265 22,100 600 Climbing Vancouver Center
Sun 02:23:36 PM 53.3667 -128.9500 135° Southeast 230 265 22,700 450 Climbing Vancouver Center
Sun 02:24:36 PM 53.3167 -128.8833 141° Southeast 240 276 23,000 150 Climbing Vancouver Center
Sun 02:25:36 PM 53.2833 -128.8000 124° Southeast 260 299 23,000  Level Vancouver Center
Sun 02:26:36 PM 53.2167 -128.7000 138° Southeast 260 299 23,000  Level Vancouver Center
Sun 02:27:36 PM 53.1667 -128.6167 135° Southeast 290 334 23,000  Level Vancouver Center
Sun 02:28:36 PM 53.1000 -128.5333 143° Southeast 280 322 23,000  Level Vancouver Center
Sun 02:29:36 PM 53.0333 -128.4333 138° Southeast 290 334 23,000  Level Vancouver Center
Sun 02:30:36 PM 53.0000 -128.3167 115° Southeast 280 322 23,000  Level Vancouver Center
Sun 02:31:36 PM 52.9333 -128.2333 143° Southeast 300 345 23,000  Level Vancouver Center
Sun 02:32:36 PM 52.8667 -128.1333 138° Southeast 290 334 23,000  Level Vancouver Center
Sun 02:33:36 PM 52.8000 -128.0500 143° Southeast 290 334 23,000  Level Vancouver Center
Sun 02:34:36 PM 52.7500 -127.9667 135° Southeast 290 334 23,000  Level Vancouver Center
Sun 02:35:36 PM 52.7000 -127.8833 135° Southeast 290 334 23,000  Level Vancouver Center
Sun 02:36:36 PM 52.6500 -127.7833 129° Southeast 290 334 23,000  Level Vancouver Center
Sun 02:37:36 PM 52.5833 -127.7000 143° Southeast 290 334 23,000  Level Vancouver Center
Sun 02:38:36 PM 52.5167 -127.6167 143° Southeast 280 322 23,000  Level Vancouver Center
Sun 02:39:36 PM 52.4500 -127.5167 138° Southeast 280 322 23,000  Level Vancouver Center
Sun 02:40:36 PM 52.4000 -127.4333 135° Southeast 280 322 23,000  Level Vancouver Center
Sun 02:41:36 PM 52.3500 -127.3500 134° Southeast 280 322 23,000  Level Vancouver Center
Sun 02:42:36 PM 52.3000 -127.2667 134° Southeast 280 322 23,000  Level Vancouver Center
Sun 02:43:36 PM 52.2333 -127.1833 143° Southeast 280 322 23,000  Level Vancouver Center
Sun 02:44:36 PM 52.1833 -127.0667 125° Southeast 280 322 23,000  Level Vancouver Center
Sun 02:45:36 PM 52.1167 -127.0000 148° Southeast 280 322 23,000  Level Vancouver Center
Sun 02:46:36 PM 52.0667 -126.9000 129° Southeast 280 322 23,000  Level Vancouver Center
Sun 02:47:36 PM 52.0000 -126.8333 148° Southeast 280 322 23,000  Level Vancouver Center
Sun 02:48:36 PM 51.9500 -126.7167 125° Southeast 270 311 23,000  Level Vancouver Center
Sun 02:49:36 PM 51.9000 -126.6667 148° Southeast 270 311 23,000  Level Vancouver Center
Sun 02:50:36 PM 51.8500 -126.5833 134° Southeast 270 311 23,000  Level Vancouver Center
Sun 02:51:36 PM 51.7833 -126.5000 142° Southeast 270 311 23,000  Level Vancouver Center
Sun 02:52:36 PM 51.7333 -126.4167 134° Southeast 270 311 23,000  Level Vancouver Center
Sun 02:53:36 PM 51.6667 -126.3333 142° Southeast 270 311 23,000  Level Vancouver Center
Sun 02:54:36 PM 51.6167 -126.2500 134° Southeast 270 311 23,000  Level Vancouver Center
Sun 02:55:36 PM 51.5667 -126.1667 134° Southeast 270 311 23,000  Level Vancouver Center
Sun 02:56:36 PM 51.5000 -126.0833 142° Southeast 270 311 23,000  Level Vancouver Center
Sun 02:57:36 PM 51.4500 -126.0000 134° Southeast 270 311 23,000  Level Vancouver Center
Sun 02:58:36 PM 51.3833 -125.9333 148° Southeast 270 311 23,000  Level Vancouver Center
Sun 02:59:36 PM 51.3333 -125.8500 134° Southeast 270 311 23,000  Level Vancouver Center
Sun 03:00:36 PM 51.3000 -125.7667 123° Southeast 270 311 23,000  Level Vancouver Center
Sun 03:01:36 PM 51.2333 -125.6833 142° Southeast 270 311 23,000  Level Vancouver Center
Sun 03:02:36 PM 51.1833 -125.6167 140° Southeast 270 311 23,000  Level Vancouver Center
Sun 03:03:36 PM 51.1167 -125.5333 142° Southeast 270 311 23,000  Level Vancouver Center
Sun 03:04:36 PM 51.0667 -125.4500 134° Southeast 270 311 23,000  Level Vancouver Center
Sun 03:05:36 PM 51.0167 -125.3667 134° Southeast 270 311 23,000  Level Vancouver Center
Sun 03:06:36 PM 50.9500 -125.2833 142° Southeast 270 311 23,000  Level Vancouver Center
Sun 03:07:36 PM 50.9000 -125.2000 134° Southeast 270 311 23,000  Level Vancouver Center
Sun 03:08:36 PM 50.8333 -125.1500 155° Southeast 270 311 23,000  Level Vancouver Center
Sun 03:09:36 PM 50.7833 -125.0333 124° Southeast 270 311 23,000  Level Vancouver Center
Sun 03:10:36 PM 50.7167 -124.9833 155° Southeast 270 311 23,000  Level Vancouver Center
Sun 03:11:36 PM 50.6667 -124.9000 133° Southeast 270 311 23,000  Level Vancouver Center
Sun 03:12:36 PM 50.6000 -124.8167 142° Southeast 270 311 23,000  Level Vancouver Center
Sun 03:13:36 PM 50.5500 -124.7500 140° Southeast 270 311 23,000  Level Vancouver Center
Sun 03:14:36 PM 50.5000 -124.6667 133° Southeast 270 311 23,000  Level Vancouver Center
Sun 03:15:36 PM 50.4333 -124.5833 141° Southeast 260 299 23,000  Level Vancouver Center
Sun 03:16:36 PM 50.3833 -124.5000 133° Southeast 270 311 23,000  Level Vancouver Center
Sun 03:17:36 PM 50.3167 -124.4333 147° Southeast 270 311 23,000  Level Vancouver Center
Sun 03:18:36 PM 50.2667 -124.3667 140° Southeast 260 299 23,000  Level Vancouver Center
Sun 03:19:36 PM 50.2167 -124.3000 140° Southeast 260 299 23,000  Level Vancouver Center
Sun 03:20:36 PM 50.1667 -124.2167 133° Southeast 260 299 23,000  Level Vancouver Center
Sun 03:21:36 PM 50.1000 -124.1333 141° Southeast 260 299 23,000 -750 Level Vancouver Center
Sun 03:22:36 PM 50.0500 -124.0667 139° Southeast 270 311 21,500 -1,750 Descending Vancouver Center
Sun 03:23:36 PM 49.9833 -123.9833 141° Southeast 290 334 19,500 -2,000 Descending Vancouver Center
Sun 03:24:36 PM 49.9167 -123.9000 141° Southeast 300 345 17,500 -1,950 Descending Vancouver Center
Sun 03:25:36 PM 49.8667 -123.8167 133° Southeast 300 345 15,600 -1,950 Descending Vancouver Center
Sun 03:26:36 PM 49.8000 -123.7500 147° Southeast 290 334 13,600 -1,950 Descending Vancouver Center
Sun 03:27:36 PM 49.7333 -123.6667 141° Southeast 300 345 11,700 -1,800 Descending Vancouver Center
Sun 03:28:36 PM 49.6500 -123.6167 159° South 280 322 10,000 -850 Descending Vancouver Center
Sun 03:29:36 PM 49.6000 -123.5667 147° Southeast 260 299 10,000  Level Vancouver Center
Sun 03:30:36 PM 49.5333 -123.5167 154° Southeast 260 299 10,000  Level Vancouver Center
Sun 03:31:36 PM 49.4667 -123.4667 154° Southeast 260 299 10,000  Level Vancouver Center
Sun 03:32:36 PM 49.4000 -123.4167 154° Southeast 260 299 10,000  Level Vancouver Center
Sun 03:34:36 PM 49.2833 -123.3167 151° Southeast 260 299 10,000 -567 Level Vancouver Center
Sun 03:35:36 PM 49.2500 -123.2167 117° Southeast 240 276 8,300 -1,500 Descending Vancouver Center
Sun 03:36:36 PM 49.2500 -123.1333 90° East 220 253 7,000 -1,400 Descending Vancouver Center
Sun 03:37:36 PM 49.2333 -123.0333 104° East 220 253 5,500 -1,450 Descending Vancouver Center
Sun 03:38:36 PM 49.2167 -122.9500 107° East 210 242 4,100 -1,300 Descending Vancouver Center
Sun 03:39:36 PM 49.1667 -122.9833 204° Southwest 200 230 2,900 -1,200 Descending Vancouver Center
Sun 03:40:36 PM 49.1667 -123.0667 270° West 190 219 1,700 -1,200 Descending Vancouver Center

Login

Don't have an account? Register now (free) for customized features, flight alerts, and more!